sensor_id;sensor_type;location;lat;lon;timestamp;pressure;altitude;pressure_sealevel;temperature;humidity
25084;BME280;13075;55.682;37.564;2023-04-28T00:00:15;98938.69;;;18.29;98.60
25084;BME280;13075;55.682;37.564;2023-04-28T00:02:40;98934.38;;;18.38;97.87
25084;BME280;13075;55.682;37.564;2023-04-28T00:05:06;98934.34;;;18.33;99.31
25084;BME280;13075;55.682;37.564;2023-04-28T00:07:31;98935.69;;;18.31;100.00
25084;BME280;13075;55.682;37.564;2023-04-28T00:09:57;98935.97;;;18.29;100.00
25084;BME280;13075;55.682;37.564;2023-04-28T00:12:22;98935.03;;;18.03;100.00
25084;BME280;13075;55.682;37.564;2023-04-28T00:14:48;98928.09;;;18.33;99.06
25084;BME280;13075;55.682;37.564;2023-04-28T00:17:13;98936.19;;;18.18;100.00
25084;BME280;13075;55.682;37.564;2023-04-28T00:19:38;98935.34;;;18.17;99.99
25084;BME280;13075;55.682;37.564;2023-04-28T00:22:04;98927.88;;;18.39;97.08
25084;BME280;13075;55.682;37.564;2023-04-28T00:24:30;98924.03;;;18.25;98.32
25084;BME280;13075;55.682;37.564;2023-04-28T00:26:57;98920.28;;;18.41;96.33
25084;BME280;13075;55.682;37.564;2023-04-28T00:29:23;98922.44;;;18.34;97.23
25084;BME280;13075;55.682;37.564;2023-04-28T00:31:49;98917.03;;;18.34;96.77
25084;BME280;13075;55.682;37.564;2023-04-28T00:34:14;98919.47;;;18.36;97.83
25084;BME280;13075;55.682;37.564;2023-04-28T00:36:40;98900.88;;;18.54;95.35
25084;BME280;13075;55.682;37.564;2023-04-28T00:39:05;98918.09;;;18.33;98.98
25084;BME280;13075;55.682;37.564;2023-04-28T00:41:33;98907.00;;;18.30;97.82
25084;BME280;13075;55.682;37.564;2023-04-28T00:43:58;98904.03;;;18.31;98.62
25084;BME280;13075;55.682;37.564;2023-04-28T00:46:26;98913.19;;;18.25;99.81
25084;BME280;13075;55.682;37.564;2023-04-28T00:48:53;98913.72;;;18.27;99.76
25084;BME280;13075;55.682;37.564;2023-04-28T00:51:19;98910.47;;;18.25;100.00
25084;BME280;13075;55.682;37.564;2023-04-28T00:53:45;98906.09;;;18.09;100.00
25084;BME280;13075;55.682;37.564;2023-04-28T00:56:11;98903.69;;;18.18;100.00
25084;BME280;13075;55.682;37.564;2023-04-28T00:58:37;98907.16;;;18.08;100.00
25084;BME280;13075;55.682;37.564;2023-04-28T01:01:06;98912.88;;;18.07;100.00
25084;BME280;13075;55.682;37.564;2023-04-28T01:03:35;98912.06;;;18.11;100.00
25084;BME280;13075;55.682;37.564;2023-04-28T01:06:06;98916.66;;;18.11;100.00
25084;BME280;13075;55.682;37.564;2023-04-28T01:08:33;98922.78;;;17.91;100.00
25084;BME280;13075;55.682;37.564;2023-04-28T01:11:01;98918.78;;;18.03;100.00
25084;BME280;13075;55.682;37.564;2023-04-28T01:13:59;98916.13;;;18.09;100.00
25084;BME280;13075;55.682;37.564;2023-04-28T01:16:27;98910.75;;;18.19;100.00
25084;BME280;13075;55.682;37.564;2023-04-28T01:18:53;98915.38;;;17.76;100.00
25084;BME280;13075;55.682;37.564;2023-04-28T01:21:26;98913.09;;;17.58;100.00
25084;BME280;13075;55.682;37.564;2023-04-28T01:23:54;98919.97;;;17.76;100.00
25084;BME280;13075;55.682;37.564;2023-04-28T01:26:20;98930.56;;;17.45;100.00
25084;BME280;13075;55.682;37.564;2023-04-28T01:28:45;98922.97;;;17.74;100.00
25084;BME280;13075;55.682;37.564;2023-04-28T01:31:11;98918.84;;;17.67;100.00
25084;BME280;13075;55.682;37.564;2023-04-28T01:33:37;98921.63;;;17.45;100.00
25084;BME280;13075;55.682;37.564;2023-04-28T01:36:02;98925.00;;;17.25;100.00
25084;BME280;13075;55.682;37.564;2023-04-28T01:38:28;98925.13;;;17.40;100.00
25084;BME280;13075;55.682;37.564;2023-04-28T01:40:53;98930.53;;;17.40;100.00
25084;BME280;13075;55.682;37.564;2023-04-28T01:43:19;98922.84;;;17.59;100.00
25084;BME280;13075;55.682;37.564;2023-04-28T01:45:45;98928.25;;;17.27;100.00
25084;BME280;13075;55.682;37.564;2023-04-28T01:48:10;98923.31;;;17.51;100.00
25084;BME280;13075;55.682;37.564;2023-04-28T01:50:35;98916.94;;;17.30;100.00
25084;BME280;13075;55.682;37.564;2023-04-28T01:53:03;98924.00;;;17.31;100.00
25084;BME280;13075;55.682;37.564;2023-04-28T01:55:28;98928.47;;;17.53;100.00
25084;BME280;13075;55.682;37.564;2023-04-28T01:57:54;98922.66;;;17.34;100.00
25084;BME280;13075;55.682;37.564;2023-04-28T02:00:19;98909.72;;;17.41;100.00
25084;BME280;13075;55.682;37.564;2023-04-28T02:02:49;98909.72;;;17.09;100.00
25084;BME280;13075;55.682;37.564;2023-04-28T02:05:15;98899.38;;;17.33;100.00
25084;BME280;13075;55.682;37.564;2023-04-28T02:07:41;98902.53;;;17.20;100.00
25084;BME280;13075;55.682;37.564;2023-04-28T02:10:07;98909.72;;;17.41;100.00
25084;BME280;13075;55.682;37.564;2023-04-28T02:12:32;98915.34;;;17.34;100.00
25084;BME280;13075;55.682;37.564;2023-04-28T02:14:58;98907.88;;;17.47;100.00
25084;BME280;13075;55.682;37.564;2023-04-28T02:17:25;98917.19;;;17.61;100.00
25084;BME280;13075;55.682;37.564;2023-04-28T02:19:57;98912.19;;;17.48;100.00
25084;BME280;13075;55.682;37.564;2023-04-28T02:22:22;98904.00;;;17.69;100.00
25084;BME280;13075;55.682;37.564;2023-04-28T02:24:48;98909.25;;;17.86;100.00
25084;BME280;13075;55.682;37.564;2023-04-28T02:27:13;98907.91;;;17.88;100.00
25084;BME280;13075;55.682;37.564;2023-04-28T02:29:39;98920.88;;;17.50;100.00
25084;BME280;13075;55.682;37.564;2023-04-28T02:32:05;98910.25;;;17.75;100.00
25084;BME280;13075;55.682;37.564;2023-04-28T02:34:30;98922.66;;;17.71;100.00
25084;BME280;13075;55.682;37.564;2023-04-28T02:36:56;98927.47;;;17.64;100.00
25084;BME280;13075;55.682;37.564;2023-04-28T02:39:21;98927.19;;;17.60;100.00
25084;BME280;13075;55.682;37.564;2023-04-28T02:41:51;98920.91;;;16.91;100.00
25084;BME280;13075;55.682;37.564;2023-04-28T02:44:16;98940.59;;;17.50;100.00
25084;BME280;13075;55.682;37.564;2023-04-28T02:46:42;98931.78;;;17.28;100.00
25084;BME280;13075;55.682;37.564;2023-04-28T02:49:07;98940.56;;;17.08;100.00
25084;BME280;13075;55.682;37.564;2023-04-28T02:51:33;98941.94;;;17.48;100.00
25084;BME280;13075;55.682;37.564;2023-04-28T02:53:58;98938.69;;;17.14;100.00
25084;BME280;13075;55.682;37.564;2023-04-28T02:56:24;98943.66;;;17.54;100.00
25084;BME280;13075;55.682;37.564;2023-04-28T02:58:49;98931.38;;;17.78;100.00
25084;BME280;13075;55.682;37.564;2023-04-28T03:01:15;98934.13;;;17.83;100.00
25084;BME280;13075;55.682;37.564;2023-04-28T03:03:40;98927.72;;;17.57;100.00
25084;BME280;13075;55.682;37.564;2023-04-28T03:06:06;98928.53;;;18.04;100.00
25084;BME280;13075;55.682;37.564;2023-04-28T03:08:31;98935.78;;;17.94;100.00
25084;BME280;13075;55.682;37.564;2023-04-28T03:10:57;98921.69;;;17.92;100.00
25084;BME280;13075;55.682;37.564;2023-04-28T03:13:22;98932.34;;;18.03;100.00
25084;BME280;13075;55.682;37.564;2023-04-28T03:15:48;98935.25;;;17.97;100.00
25084;BME280;13075;55.682;37.564;2023-04-28T03:18:14;98948.47;;;17.52;100.00
25084;BME280;13075;55.682;37.564;2023-04-28T03:20:39;98948.41;;;17.78;100.00
25084;BME280;13075;55.682;37.564;2023-04-28T03:23:05;98949.47;;;17.72;100.00
25084;BME280;13075;55.682;37.564;2023-04-28T03:25:30;98952.66;;;17.64;100.00
25084;BME280;13075;55.682;37.564;2023-04-28T03:27:55;98950.84;;;17.75;100.00
25084;BME280;13075;55.682;37.564;2023-04-28T03:30:21;98957.22;;;17.59;100.00
25084;BME280;13075;55.682;37.564;2023-04-28T03:32:47;98955.16;;;17.76;100.00
25084;BME280;13075;55.682;37.564;2023-04-28T03:35:13;98964.34;;;17.75;100.00
25084;BME280;13075;55.682;37.564;2023-04-28T03:37:39;98956.75;;;17.72;100.00
25084;BME280;13075;55.682;37.564;2023-04-28T03:40:05;98961.34;;;18.13;100.00
25084;BME280;13075;55.682;37.564;2023-04-28T03:42:46;98962.25;;;17.82;100.00
25084;BME280;13075;55.682;37.564;2023-04-28T03:45:21;98968.81;;;17.91;100.00
25084;BME280;13075;55.682;37.564;2023-04-28T03:47:47;98963.22;;;18.13;100.00
25084;BME280;13075;55.682;37.564;2023-04-28T03:50:13;98965.94;;;18.13;100.00
25084;BME280;13075;55.682;37.564;2023-04-28T03:52:39;98976.28;;;18.26;100.00
25084;BME280;13075;55.682;37.564;2023-04-28T03:55:05;98966.34;;;17.89;100.00
25084;BME280;13075;55.682;37.564;2023-04-28T03:57:31;98968.19;;;17.84;100.00
25084;BME280;13075;55.682;37.564;2023-04-28T03:59:57;98961.72;;;17.85;100.00
25084;BME280;13075;55.682;37.564;2023-04-28T04:02:22;98968.03;;;18.47;100.00
25084;BME280;13075;55.682;37.564;2023-04-28T04:04:47;98969.50;;;18.23;100.00
25084;BME280;13075;55.682;37.564;2023-04-28T04:07:13;98967.34;;;18.25;100.00
25084;BME280;13075;55.682;37.564;2023-04-28T04:09:39;98979.81;;;18.26;100.00
25084;BME280;13075;55.682;37.564;2023-04-28T04:12:04;98991.72;;;18.25;100.00
25084;BME280;13075;55.682;37.564;2023-04-28T04:14:30;98980.91;;;18.30;100.00
25084;BME280;13075;55.682;37.564;2023-04-28T04:16:56;98975.78;;;18.34;100.00
25084;BME280;13075;55.682;37.564;2023-04-28T04:19:22;98971.88;;;18.61;100.00
25084;BME280;13075;55.682;37.564;2023-04-28T04:21:52;98969.06;;;18.46;100.00
25084;BME280;13075;55.682;37.564;2023-04-28T04:24:18;98969.66;;;18.48;100.00
25084;BME280;13075;55.682;37.564;2023-04-28T04:26:43;98966.22;;;18.73;100.00
25084;BME280;13075;55.682;37.564;2023-04-28T04:29:32;98977.13;;;18.98;100.00
25084;BME280;13075;55.682;37.564;2023-04-28T04:32:00;98988.25;;;18.97;100.00
25084;BME280;13075;55.682;37.564;2023-04-28T04:34:26;98987.41;;;18.86;100.00
25084;BME280;13075;55.682;37.564;2023-04-28T04:36:51;98986.84;;;18.89;100.00
25084;BME280;13075;55.682;37.564;2023-04-28T04:39:17;98986.75;;;18.59;100.00
25084;BME280;13075;55.682;37.564;2023-04-28T04:41:43;98986.78;;;18.69;100.00
25084;BME280;13075;55.682;37.564;2023-04-28T04:44:28;98992.16;;;18.54;100.00
25084;BME280;13075;55.682;37.564;2023-04-28T04:46:55;98992.38;;;18.42;100.00
25084;BME280;13075;55.682;37.564;2023-04-28T04:49:20;98988.22;;;18.92;100.00
25084;BME280;13075;55.682;37.564;2023-04-28T04:51:46;98991.25;;;19.15;100.00
25084;BME280;13075;55.682;37.564;2023-04-28T04:54:11;98992.88;;;19.21;100.00
25084;BME280;13075;55.682;37.564;2023-04-28T04:56:38;99004.41;;;18.72;100.00
25084;BME280;13075;55.682;37.564;2023-04-28T04:59:04;99007.22;;;19.02;100.00
25084;BME280;13075;55.682;37.564;2023-04-28T05:01:39;99001.53;;;19.03;100.00
25084;BME280;13075;55.682;37.564;2023-04-28T05:04:05;98999.13;;;19.32;100.00
25084;BME280;13075;55.682;37.564;2023-04-28T05:06:30;99006.75;;;19.35;100.00
25084;BME280;13075;55.682;37.564;2023-04-28T05:08:56;99006.94;;;19.03;100.00
25084;BME280;13075;55.682;37.564;2023-04-28T05:11:23;99002.06;;;19.05;100.00
25084;BME280;13075;55.682;37.564;2023-04-28T05:13:49;99003.44;;;19.08;100.00
25084;BME280;13075;55.682;37.564;2023-04-28T05:16:14;99005.91;;;19.24;100.00
25084;BME280;13075;55.682;37.564;2023-04-28T05:19:01;99001.31;;;19.25;100.00
25084;BME280;13075;55.682;37.564;2023-04-28T05:21:27;99015.91;;;19.09;100.00
25084;BME280;13075;55.682;37.564;2023-04-28T05:23:52;99015.09;;;19.08;100.00
25084;BME280;13075;55.682;37.564;2023-04-28T05:26:18;99016.44;;;18.96;100.00
25084;BME280;13075;55.682;37.564;2023-04-28T05:28:43;99009.22;;;19.47;100.00
25084;BME280;13075;55.682;37.564;2023-04-28T05:31:09;99011.66;;;19.68;100.00
25084;BME280;13075;55.682;37.564;2023-04-28T05:33:34;99019.25;;;19.86;100.00
25084;BME280;13075;55.682;37.564;2023-04-28T05:36:00;99009.22;;;19.92;100.00
25084;BME280;13075;55.682;37.564;2023-04-28T05:38:25;99007.84;;;20.00;100.00
25084;BME280;13075;55.682;37.564;2023-04-28T05:40:53;99009.75;;;19.94;100.00
25084;BME280;13075;55.682;37.564;2023-04-28T05:43:18;99009.78;;;19.69;100.00
25084;BME280;13075;55.682;37.564;2023-04-28T05:45:44;99011.13;;;19.81;100.00
25084;BME280;13075;55.682;37.564;2023-04-28T05:48:10;99005.44;;;19.48;100.00
25084;BME280;13075;55.682;37.564;2023-04-28T05:50:36;99002.97;;;19.81;100.00
25084;BME280;13075;55.682;37.564;2023-04-28T05:53:01;99014.34;;;20.09;100.00
25084;BME280;13075;55.682;37.564;2023-04-28T05:55:28;99014.88;;;20.26;100.00
25084;BME280;13075;55.682;37.564;2023-04-28T05:57:54;99011.91;;;20.02;100.00
25084;BME280;13075;55.682;37.564;2023-04-28T06:00:20;99017.88;;;20.09;100.00
25084;BME280;13075;55.682;37.564;2023-04-28T06:02:46;99015.69;;;20.01;100.00
25084;BME280;13075;55.682;37.564;2023-04-28T06:05:13;99014.63;;;19.72;100.00
25084;BME280;13075;55.682;37.564;2023-04-28T06:07:39;99008.94;;;19.88;100.00
25084;BME280;13075;55.682;37.564;2023-04-28T06:10:04;99013.56;;;19.68;100.00
25084;BME280;13075;55.682;37.564;2023-04-28T06:12:30;99012.22;;;19.50;100.00
25084;BME280;13075;55.682;37.564;2023-04-28T06:14:56;99009.47;;;19.96;100.00
25084;BME280;13075;55.682;37.564;2023-04-28T06:17:24;99011.66;;;19.78;100.00
25084;BME280;13075;55.682;37.564;2023-04-28T06:19:50;99008.34;;;20.27;100.00
25084;BME280;13075;55.682;37.564;2023-04-28T06:22:18;99004.81;;;20.26;100.00
25084;BME280;13075;55.682;37.564;2023-04-28T06:24:45;99003.34;;;20.64;100.00
25084;BME280;13075;55.682;37.564;2023-04-28T06:27:16;99002.31;;;20.45;100.00
25084;BME280;13075;55.682;37.564;2023-04-28T06:29:41;99007.56;;;19.91;100.00
25084;BME280;13075;55.682;37.564;2023-04-28T06:32:06;99005.69;;;19.56;100.00
25084;BME280;13075;55.682;37.564;2023-04-28T06:34:33;98999.47;;;19.46;100.00
25084;BME280;13075;55.682;37.564;2023-04-28T06:36:58;99008.66;;;19.40;100.00
25084;BME280;13075;55.682;37.564;2023-04-28T06:39:25;99012.47;;;19.84;100.00
25084;BME280;13075;55.682;37.564;2023-04-28T06:41:50;99004.59;;;19.72;100.00
25084;BME280;13075;55.682;37.564;2023-04-28T06:44:16;99000.25;;;19.97;100.00
25084;BME280;13075;55.682;37.564;2023-04-28T06:46:42;99001.56;;;20.24;100.00
25084;BME280;13075;55.682;37.564;2023-04-28T06:49:08;99001.00;;;20.22;100.00
25084;BME280;13075;55.682;37.564;2023-04-28T06:51:34;99013.63;;;20.77;100.00
25084;BME280;13075;55.682;37.564;2023-04-28T06:54:00;98998.00;;;20.98;100.00
25084;BME280;13075;55.682;37.564;2023-04-28T06:56:25;99002.34;;;21.77;100.00
25084;BME280;13075;55.682;37.564;2023-04-28T06:58:51;98996.19;;;23.50;85.87
25084;BME280;13075;55.682;37.564;2023-04-28T07:01:17;98988.16;;;23.73;78.76
25084;BME280;13075;55.682;37.564;2023-04-28T07:03:42;98996.91;;;23.00;84.70
25084;BME280;13075;55.682;37.564;2023-04-28T07:06:08;99008.38;;;22.31;87.00
25084;BME280;13075;55.682;37.564;2023-04-28T07:08:33;98995.34;;;21.99;97.09
25084;BME280;13075;55.682;37.564;2023-04-28T07:10:59;99009.91;;;22.42;96.91
25084;BME280;13075;55.682;37.564;2023-04-28T07:13:28;99005.81;;;23.06;91.46
25084;BME280;13075;55.682;37.564;2023-04-28T07:15:54;99007.00;;;23.18;85.64
25084;BME280;13075;55.682;37.564;2023-04-28T07:18:19;99013.44;;;21.85;91.50
25084;BME280;13075;55.682;37.564;2023-04-28T07:20:45;99008.19;;;21.99;97.93
25084;BME280;13075;55.682;37.564;2023-04-28T07:23:10;99018.34;;;21.10;100.00
25084;BME280;13075;55.682;37.564;2023-04-28T07:25:36;99016.56;;;20.81;100.00
25084;BME280;13075;55.682;37.564;2023-04-28T07:28:02;99019.06;;;20.77;100.00
25084;BME280;13075;55.682;37.564;2023-04-28T07:30:27;99020.88;;;20.92;100.00
25084;BME280;13075;55.682;37.564;2023-04-28T07:32:53;99030.91;;;20.96;100.00
25084;BME280;13075;55.682;37.564;2023-04-28T07:35:18;99022.19;;;20.20;100.00
25084;BME280;13075;55.682;37.564;2023-04-28T07:37:44;99043.91;;;20.40;100.00
25084;BME280;13075;55.682;37.564;2023-04-28T07:40:09;99029.81;;;19.98;100.00
25084;BME280;13075;55.682;37.564;2023-04-28T07:42:35;99024.06;;;20.45;100.00
25084;BME280;13075;55.682;37.564;2023-04-28T07:45:00;99035.16;;;20.59;100.00
25084;BME280;13075;55.682;37.564;2023-04-28T07:47:26;99032.44;;;21.23;100.00
25084;BME280;13075;55.682;37.564;2023-04-28T07:49:53;99027.41;;;21.73;100.00
25084;BME280;13075;55.682;37.564;2023-04-28T07:52:18;99014.09;;;24.21;98.64
25084;BME280;13075;55.682;37.564;2023-04-28T07:54:44;99020.53;;;27.01;66.85
25084;BME280;13075;55.682;37.564;2023-04-28T07:57:09;99022.34;;;24.89;76.19
25084;BME280;13075;55.682;37.564;2023-04-28T07:59:35;99016.84;;;24.35;79.93
25084;BME280;13075;55.682;37.564;2023-04-28T08:02:00;99021.03;;;23.49;90.82
25084;BME280;13075;55.682;37.564;2023-04-28T08:04:26;99018.03;;;21.56;100.00
25084;BME280;13075;55.682;37.564;2023-04-28T08:06:51;99029.28;;;21.00;100.00
25084;BME280;13075;55.682;37.564;2023-04-28T08:09:17;99034.94;;;21.53;100.00
25084;BME280;13075;55.682;37.564;2023-04-28T08:11:42;99030.69;;;20.83;100.00
25084;BME280;13075;55.682;37.564;2023-04-28T08:14:08;99031.69;;;20.38;100.00
25084;BME280;13075;55.682;37.564;2023-04-28T08:16:33;99028.16;;;20.32;100.00
25084;BME280;13075;55.682;37.564;2023-04-28T08:19:02;99027.06;;;20.18;100.00
25084;BME280;13075;55.682;37.564;2023-04-28T08:21:28;99028.16;;;20.37;100.00
25084;BME280;13075;55.682;37.564;2023-04-28T08:23:53;99029.59;;;19.89;100.00
25084;BME280;13075;55.682;37.564;2023-04-28T08:26:18;99030.06;;;20.32;100.00
25084;BME280;13075;55.682;37.564;2023-04-28T08:28:44;99027.88;;;20.19;100.00
25084;BME280;13075;55.682;37.564;2023-04-28T08:31:09;99033.09;;;19.80;100.00
25084;BME280;13075;55.682;37.564;2023-04-28T08:33:35;99030.63;;;20.04;100.00
25084;BME280;13075;55.682;37.564;2023-04-28T08:36:00;99038.00;;;19.58;100.00
25084;BME280;13075;55.682;37.564;2023-04-28T08:38:26;99038.00;;;19.58;100.00
25084;BME280;13075;55.682;37.564;2023-04-28T08:40:51;99036.63;;;19.75;100.00
25084;BME280;13075;55.682;37.564;2023-04-28T08:43:17;99042.88;;;19.66;100.00
25084;BME280;13075;55.682;37.564;2023-04-28T08:45:44;99036.88;;;19.44;100.00
25084;BME280;13075;55.682;37.564;2023-04-28T08:48:20;99041.00;;;19.71;100.00
25084;BME280;13075;55.682;37.564;2023-04-28T08:50:50;99045.84;;;19.44;100.00
25084;BME280;13075;55.682;37.564;2023-04-28T08:53:18;99046.38;;;19.51;100.00
25084;BME280;13075;55.682;37.564;2023-04-28T08:55:45;99037.16;;;19.62;100.00
25084;BME280;13075;55.682;37.564;2023-04-28T08:58:11;99056.75;;;19.79;100.00
25084;BME280;13075;55.682;37.564;2023-04-28T09:00:37;99044.69;;;19.15;100.00
25084;BME280;13075;55.682;37.564;2023-04-28T09:03:03;99047.22;;;19.72;100.00
25084;BME280;13075;55.682;37.564;2023-04-28T09:05:29;99049.53;;;19.13;100.00
25084;BME280;13075;55.682;37.564;2023-04-28T09:07:55;99046.31;;;19.16;100.00
25084;BME280;13075;55.682;37.564;2023-04-28T09:10:21;99045.84;;;19.54;100.00
25084;BME280;13075;55.682;37.564;2023-04-28T09:12:47;99035.25;;;19.93;100.00
25084;BME280;13075;55.682;37.564;2023-04-28T09:17:51;99030.00;;;21.60;100.00
25084;BME280;13075;55.682;37.564;2023-04-28T09:20:26;99035.88;;;21.72;100.00
25084;BME280;13075;55.682;37.564;2023-04-28T09:22:52;99038.72;;;21.96;100.00
25084;BME280;13075;55.682;37.564;2023-04-28T09:25:18;99039.38;;;21.78;100.00
25084;BME280;13075;55.682;37.564;2023-04-28T09:27:45;99042.91;;;20.90;100.00
25084;BME280;13075;55.682;37.564;2023-04-28T09:30:11;99042.56;;;21.51;100.00
25084;BME280;13075;55.682;37.564;2023-04-28T09:32:36;99027.78;;;22.01;100.00
25084;BME280;13075;55.682;37.564;2023-04-28T09:35:02;99030.53;;;22.24;100.00
25084;BME280;13075;55.682;37.564;2023-04-28T09:37:32;99030.69;;;21.76;100.00
25084;BME280;13075;55.682;37.564;2023-04-28T09:40:02;99033.34;;;21.86;100.00
25084;BME280;13075;55.682;37.564;2023-04-28T09:44:59;99035.78;;;20.99;100.00
25084;BME280;13075;55.682;37.564;2023-04-28T09:47:27;99040.94;;;20.17;100.00
25084;BME280;13075;55.682;37.564;2023-04-28T09:49:55;99039.03;;;20.27;100.00
25084;BME280;13075;55.682;37.564;2023-04-28T09:52:25;99032.75;;;20.37;100.00
25084;BME280;13075;55.682;37.564;2023-04-28T09:54:51;99032.25;;;20.25;100.00
25084;BME280;13075;55.682;37.564;2023-04-28T09:57:17;99037.94;;;20.18;100.00
25084;BME280;13075;55.682;37.564;2023-04-28T09:59:49;99040.69;;;20.23;100.00
25084;BME280;13075;55.682;37.564;2023-04-28T10:02:15;99040.09;;;20.21;100.00
25084;BME280;13075;55.682;37.564;2023-04-28T10:04:43;99045.59;;;19.86;100.00
25084;BME280;13075;55.682;37.564;2023-04-28T10:07:10;99035.66;;;20.66;100.00
25084;BME280;13075;55.682;37.564;2023-04-28T10:09:36;99045.75;;;20.55;100.00
25084;BME280;13075;55.682;37.564;2023-04-28T10:12:01;99051.38;;;20.79;100.00
25084;BME280;13075;55.682;37.564;2023-04-28T10:14:28;99047.97;;;20.43;100.00
25084;BME280;13075;55.682;37.564;2023-04-28T10:16:55;99045.56;;;21.05;100.00
25084;BME280;13075;55.682;37.564;2023-04-28T10:19:23;99043.66;;;21.84;100.00
25084;BME280;13075;55.682;37.564;2023-04-28T10:21:52;99050.66;;;22.28;100.00
25084;BME280;13075;55.682;37.564;2023-04-28T10:24:22;99043.75;;;21.35;100.00
25084;BME280;13075;55.682;37.564;2023-04-28T10:29:22;99047.09;;;21.65;100.00
25084;BME280;13075;55.682;37.564;2023-04-28T10:34:32;99038.91;;;21.65;100.00
25084;BME280;13075;55.682;37.564;2023-04-28T10:36:57;99043.91;;;21.53;100.00
25084;BME280;13075;55.682;37.564;2023-04-28T10:39:23;99058.16;;;21.40;100.00
25084;BME280;13075;55.682;37.564;2023-04-28T10:41:49;99058.34;;;21.05;100.00
25084;BME280;13075;55.682;37.564;2023-04-28T10:45:00;99056.69;;;21.04;100.00
25084;BME280;13075;55.682;37.564;2023-04-28T10:47:01;99046.56;;;20.56;100.00
25084;BME280;13075;55.682;37.564;2023-04-28T11:00:50;99059.16;;;19.86;100.00
25084;BME280;13075;55.682;37.564;2023-04-28T11:08:51;99059.72;;;19.73;100.00
25084;BME280;13075;55.682;37.564;2023-04-28T11:11:18;99060.25;;;19.75;100.00
25084;BME280;13075;55.682;37.564;2023-04-28T11:13:44;99058.63;;;19.89;100.00
25084;BME280;13075;55.682;37.564;2023-04-28T11:16:18;99065.41;;;19.61;100.00
25084;BME280;13075;55.682;37.564;2023-04-28T11:21:09;99062.41;;;19.68;100.00
25084;BME280;13075;55.682;37.564;2023-04-28T11:23:35;99067.84;;;19.78;100.00
25084;BME280;13075;55.682;37.564;2023-04-28T11:26:01;99075.16;;;19.57;100.00
25084;BME280;13075;55.682;37.564;2023-04-28T11:28:26;99065.94;;;19.68;100.00
25084;BME280;13075;55.682;37.564;2023-04-28T11:30:52;99076.78;;;20.09;100.00
25084;BME280;13075;55.682;37.564;2023-04-28T11:33:17;99071.66;;;19.97;100.00
25084;BME280;13075;55.682;37.564;2023-04-28T11:35:43;99075.72;;;20.15;100.00
25084;BME280;13075;55.682;37.564;2023-04-28T11:38:08;99069.19;;;20.16;100.00
25084;BME280;13075;55.682;37.564;2023-04-28T11:40:33;99079.25;;;20.15;100.00
25084;BME280;13075;55.682;37.564;2023-04-28T11:42:59;99074.25;;;20.68;100.00
25084;BME280;13075;55.682;37.564;2023-04-28T11:45:25;99066.19;;;20.42;100.00
25084;BME280;13075;55.682;37.564;2023-04-28T11:47:50;99075.16;;;20.38;100.00
25084;BME280;13075;55.682;37.564;2023-04-28T11:50:16;99068.38;;;20.20;100.00
25084;BME280;13075;55.682;37.564;2023-04-28T11:52:50;99068.56;;;20.64;100.00
25084;BME280;13075;55.682;37.564;2023-04-28T11:55:16;99065.38;;;20.22;100.00
25084;BME280;13075;55.682;37.564;2023-04-28T11:57:42;99065.03;;;20.64;100.00
25084;BME280;13075;55.682;37.564;2023-04-28T12:00:16;99057.19;;;20.47;100.00
25084;BME280;13075;55.682;37.564;2023-04-28T12:02:46;99053.91;;;20.55;100.00
25084;BME280;13075;55.682;37.564;2023-04-28T12:05:12;99059.34;;;20.60;100.00
25084;BME280;13075;55.682;37.564;2023-04-28T12:07:41;99052.34;;;20.29;100.00
25084;BME280;13075;55.682;37.564;2023-04-28T12:12:36;99053.69;;;20.21;100.00
25084;BME280;13075;55.682;37.564;2023-04-28T12:15:02;99045.28;;;20.23;100.00
25084;BME280;13075;55.682;37.564;2023-04-28T12:17:35;99051.84;;;19.97;100.00
25084;BME280;13075;55.682;37.564;2023-04-28T12:20:02;99051.28;;;20.05;100.00
25084;BME280;13075;55.682;37.564;2023-04-28T12:22:29;99051.50;;;20.18;100.00
25084;BME280;13075;55.682;37.564;2023-04-28T12:25:02;99050.19;;;20.01;100.00
25084;BME280;13075;55.682;37.564;2023-04-28T12:27:27;99056.97;;;19.98;100.00
25084;BME280;13075;55.682;37.564;2023-04-28T12:29:53;99060.00;;;19.86;100.00
25084;BME280;13075;55.682;37.564;2023-04-28T12:32:35;99065.66;;;19.75;100.00
25084;BME280;13075;55.682;37.564;2023-04-28T12:35:01;99065.94;;;19.68;100.00
25084;BME280;13075;55.682;37.564;2023-04-28T12:37:29;99071.38;;;19.73;100.00
25084;BME280;13075;55.682;37.564;2023-04-28T12:39:55;99068.66;;;19.68;100.00
25084;BME280;13075;55.682;37.564;2023-04-28T12:42:20;99072.91;;;19.29;100.00
25084;BME280;13075;55.682;37.564;2023-04-28T12:44:47;99082.00;;;18.93;100.00
25084;BME280;13075;55.682;37.564;2023-04-28T12:47:14;99075.31;;;19.20;100.00
25084;BME280;13075;55.682;37.564;2023-04-28T12:49:42;99073.72;;;19.19;100.00
25084;BME280;13075;55.682;37.564;2023-04-28T12:52:07;99067.78;;;19.27;100.00
25084;BME280;13075;55.682;37.564;2023-04-28T12:54:33;99068.81;;;19.11;100.00
25084;BME280;13075;55.682;37.564;2023-04-28T12:56:58;99058.31;;;19.40;100.00
25084;BME280;13075;55.682;37.564;2023-04-28T12:59:24;99066.66;;;19.23;100.00
25084;BME280;13075;55.682;37.564;2023-04-28T13:01:49;99068.00;;;19.21;100.00
25084;BME280;13075;55.682;37.564;2023-04-28T13:04:15;99067.44;;;19.14;100.00
25084;BME280;13075;55.682;37.564;2023-04-28T13:06:41;99066.16;;;19.37;100.00
25084;BME280;13075;55.682;37.564;2023-04-28T13:09:11;99073.72;;;19.19;100.00